Time;durP1;ratioP1;P1;durP2;ratioP2;P2;SDS_P1;SDS_P2;PMS_P1;PMS_P2;Temp;Humidity;BMP_temperature;BMP_pressure;BME280_temperature;BME280_humidity;BME280_pressure;Samples;Min_cycle;Max_cycle;Signal;HPM_P1;HPM_P2
2023/08/16 00:00:27;;;;;;;9.52;2.17;;;;;;;;;;5049367;28;20041;-83
2023/08/16 00:02:53;;;;;;;6.13;2.08;;;;;;;;;;5068269;28;20063;-83
2023/08/16 00:05:19;;;;;;;6.25;1.88;;;;;;;;;;5056734;28;20041;-83
2023/08/16 00:07:46;;;;;;;9.23;2.50;;;;;;;;;;5049768;28;20065;-83
2023/08/16 00:10:12;;;;;;;4.40;2.03;;;;;;;;;;5066970;28;20120;-82
2023/08/16 00:12:41;;;;;;;8.48;2.58;;;;;;;;;;5071348;28;20052;-83
2023/08/16 00:15:07;;;;;;;8.25;2.75;;;;;;;;;;5056316;28;20052;-84
2023/08/16 00:17:33;;;;;;;6.25;2.60;;;;;;;;;;5071605;28;20045;-83
2023/08/16 00:20:00;;;;;;;7.03;2.78;;;;;;;;;;5069529;28;20053;-83
2023/08/16 00:22:26;;;;;;;7.95;3.03;;;;;;;;;;5071224;28;20045;-82
2023/08/16 00:24:52;;;;;;;9.63;2.75;;;;;;;;;;5072052;28;20398;-83
2023/08/16 00:27:18;;;;;;;5.57;2.47;;;;;;;;;;5068205;28;20457;-83
2023/08/16 00:29:44;;;;;;;5.10;2.53;;;;;;;;;;5049991;28;20037;-83
2023/08/16 00:32:11;;;;;;;6.47;2.05;;;;;;;;;;5049322;28;20056;-83
2023/08/16 00:34:39;;;;;;;5.60;2.17;;;;;;;;;;5070018;28;20052;-83
2023/08/16 00:37:06;;;;;;;6.55;2.30;;;;;;;;;;5070138;28;20087;-83
2023/08/16 00:39:32;;;;;;;6.63;2.38;;;;;;;;;;5070891;28;20045;-83
2023/08/16 00:41:58;;;;;;;7.03;2.70;;;;;;;;;;5068834;28;20047;-84
2023/08/16 00:44:24;;;;;;;7.35;2.65;;;;;;;;;;5068529;28;20075;-83
2023/08/16 00:46:51;;;;;;;6.25;2.60;;;;;;;;;;5050088;28;20056;-83
2023/08/16 00:49:17;;;;;;;6.80;2.60;;;;;;;;;;5069154;28;20071;-84
2023/08/16 00:51:43;;;;;;;8.93;3.30;;;;;;;;;;5065919;28;20048;-84
2023/08/16 00:54:09;;;;;;;6.40;3.28;;;;;;;;;;5068281;28;20059;-83
2023/08/16 00:56:36;;;;;;;9.20;2.92;;;;;;;;;;5069949;28;20055;-83
2023/08/16 00:59:02;;;;;;;7.20;2.97;;;;;;;;;;5050437;28;20041;-83
2023/08/16 01:01:28;;;;;;;8.05;2.83;;;;;;;;;;5068649;28;20041;-84
2023/08/16 01:03:54;;;;;;;5.82;3.13;;;;;;;;;;5068504;28;20065;-84
2023/08/16 01:06:21;;;;;;;8.45;3.60;;;;;;;;;;5065859;28;20093;-84
2023/08/16 01:08:47;;;;;;;5.80;3.20;;;;;;;;;;5067555;28;20075;-83
2023/08/16 01:11:33;;;;;;;7.30;2.55;;;;;;;;;;5048419;28;20037;-84
2023/08/16 01:14:06;;;;;;;5.05;2.40;;;;;;;;;;5067232;28;20053;-83
2023/08/16 01:16:32;;;;;;;7.20;2.78;;;;;;;;;;5058695;28;20094;-84
2023/08/16 01:18:59;;;;;;;5.18;2.22;;;;;;;;;;5067128;28;20040;-83
2023/08/16 01:21:26;;;;;;;5.38;2.42;;;;;;;;;;5067327;28;20051;-82
2023/08/16 01:24:07;;;;;;;6.30;2.50;;;;;;;;;;5064988;28;20051;-83
2023/08/16 01:26:34;;;;;;;7.35;2.83;;;;;;;;;;5067989;28;20403;-83
2023/08/16 01:29:01;;;;;;;10.02;2.90;;;;;;;;;;5066849;28;20542;-84
2023/08/16 01:31:27;;;;;;;5.38;2.80;;;;;;;;;;5065155;28;20500;-83
2023/08/16 01:33:54;;;;;;;8.70;2.97;;;;;;;;;;5065632;28;20040;-84
2023/08/16 01:36:20;;;;;;;8.00;2.80;;;;;;;;;;5066750;28;20044;-83
2023/08/16 01:38:46;;;;;;;6.07;2.90;;;;;;;;;;5046152;28;20059;-82
2023/08/16 01:41:25;;;;;;;6.70;2.90;;;;;;;;;;5065762;28;20052;-83
2023/08/16 01:43:52;;;;;;;10.98;4.00;;;;;;;;;;5070046;28;20096;-83
2023/08/16 01:46:18;;;;;;;9.95;4.00;;;;;;;;;;5054090;28;20037;-82
2023/08/16 01:48:46;;;;;;;8.82;3.80;;;;;;;;;;5071412;28;20037;-83
2023/08/16 01:51:12;;;;;;;7.32;4.10;;;;;;;;;;5071548;28;20047;-83
2023/08/16 01:53:41;;;;;;;7.72;3.80;;;;;;;;;;5071867;28;20120;-82
2023/08/16 01:56:07;;;;;;;8.25;4.32;;;;;;;;;;5071851;28;20053;-82
2023/08/16 01:58:33;;;;;;;10.70;4.55;;;;;;;;;;5071318;28;20049;-82
2023/08/16 02:01:00;;;;;;;9.35;4.18;;;;;;;;;;5068255;28;20526;-82
2023/08/16 02:03:26;;;;;;;12.85;4.43;;;;;;;;;;5065081;28;20041;-83
2023/08/16 02:05:52;;;;;;;7.65;4.13;;;;;;;;;;5046636;28;20084;-83
2023/08/16 02:08:18;;;;;;;8.15;4.30;;;;;;;;;;5038167;28;20556;-83
2023/08/16 02:10:45;;;;;;;8.65;5.28;;;;;;;;;;5065094;28;20045;-83
2023/08/16 02:13:11;;;;;;;9.32;5.38;;;;;;;;;;5047699;28;20048;-83
2023/08/16 02:15:37;;;;;;;7.65;4.43;;;;;;;;;;5046532;28;20049;-82
2023/08/16 02:18:06;;;;;;;6.57;3.53;;;;;;;;;;5063636;28;20045;-83
2023/08/16 02:20:32;;;;;;;7.85;4.38;;;;;;;;;;5048997;28;20041;-82
2023/08/16 02:23:01;;;;;;;6.13;4.22;;;;;;;;;;5067160;28;20048;-82
2023/08/16 02:25:28;;;;;;;6.88;4.45;;;;;;;;;;5050202;28;20043;-83
2023/08/16 02:27:54;;;;;;;7.20;4.18;;;;;;;;;;5058516;28;20051;-83
2023/08/16 02:30:20;;;;;;;6.55;4.60;;;;;;;;;;5059845;28;20051;-84
2023/08/16 02:32:46;;;;;;;7.05;4.78;;;;;;;;;;5055647;28;20458;-83
2023/08/16 02:35:13;;;;;;;7.32;4.50;;;;;;;;;;5062110;28;20055;-84
2023/08/16 02:37:39;;;;;;;7.05;4.32;;;;;;;;;;5058745;28;20048;-83
2023/08/16 02:40:05;;;;;;;6.90;4.60;;;;;;;;;;5043164;28;20048;-84
2023/08/16 02:42:31;;;;;;;7.03;4.68;;;;;;;;;;5059922;28;20041;-83
2023/08/16 02:44:57;;;;;;;7.57;4.75;;;;;;;;;;5059060;28;20102;-83
2023/08/16 02:47:23;;;;;;;8.20;4.65;;;;;;;;;;5057348;28;20052;-83
2023/08/16 02:49:49;;;;;;;8.90;5.22;;;;;;;;;;5059943;28;20049;-83
2023/08/16 02:52:16;;;;;;;9.43;5.22;;;;;;;;;;5053185;28;20501;-83
2023/08/16 02:54:42;;;;;;;8.40;5.40;;;;;;;;;;5053341;28;20048;-83
2023/08/16 02:57:08;;;;;;;11.18;5.72;;;;;;;;;;5060190;28;20083;-83
2023/08/16 02:59:41;;;;;;;9.63;5.85;;;;;;;;;;5059533;28;20047;-83
2023/08/16 03:02:08;;;;;;;8.38;5.32;;;;;;;;;;5059579;28;20045;-83
2023/08/16 03:04:38;;;;;;;10.90;5.85;;;;;;;;;;5041962;28;20079;-84
2023/08/16 03:07:05;;;;;;;8.52;5.30;;;;;;;;;;5059815;28;20052;-82
2023/08/16 03:09:31;;;;;;;9.10;5.65;;;;;;;;;;5052433;28;20065;-84
2023/08/16 03:11:57;;;;;;;6.60;4.75;;;;;;;;;;5029526;28;20072;-82
2023/08/16 03:14:23;;;;;;;8.18;4.63;;;;;;;;;;5052880;28;20044;-83
2023/08/16 03:16:49;;;;;;;7.75;4.75;;;;;;;;;;5057930;28;20088;-84
2023/08/16 03:19:15;;;;;;;7.80;4.28;;;;;;;;;;5042758;28;20048;-83
2023/08/16 03:21:41;;;;;;;7.88;5.18;;;;;;;;;;5040260;28;20070;-83
2023/08/16 03:24:08;;;;;;;7.85;4.30;;;;;;;;;;5059358;28;20045;-85
2023/08/16 03:26:34;;;;;;;7.00;4.35;;;;;;;;;;5042059;28;20541;-84
2023/08/16 03:29:00;;;;;;;8.70;5.40;;;;;;;;;;5059479;28;20041;-84
2023/08/16 03:31:26;;;;;;;8.55;5.47;;;;;;;;;;5057496;28;20045;-83
2023/08/16 03:33:52;;;;;;;8.35;5.20;;;;;;;;;;5060389;28;20100;-83
2023/08/16 03:36:18;;;;;;;7.85;5.15;;;;;;;;;;5057476;28;20143;-84
2023/08/16 03:38:44;;;;;;;10.18;6.20;;;;;;;;;;5056125;28;20052;-84
2023/08/16 03:41:10;;;;;;;11.70;5.43;;;;;;;;;;5058667;28;20041;-84
2023/08/16 03:43:37;;;;;;;7.72;5.60;;;;;;;;;;5058755;28;20105;-84
2023/08/16 03:46:03;;;;;;;7.47;5.25;;;;;;;;;;5058207;28;20048;-83
2023/08/16 03:48:29;;;;;;;9.50;5.07;;;;;;;;;;5059821;28;20037;-84
2023/08/16 03:50:56;;;;;;;10.38;5.55;;;;;;;;;;5060891;28;20052;-84
2023/08/16 03:53:22;;;;;;;12.75;5.93;;;;;;;;;;5060311;28;20037;-83
2023/08/16 03:55:48;;;;;;;8.63;5.40;;;;;;;;;;5051291;28;20133;-84
2023/08/16 03:58:14;;;;;;;10.95;6.03;;;;;;;;;;5060518;28;20041;-84
2023/08/16 04:00:40;;;;;;;8.27;5.70;;;;;;;;;;5061227;28;20049;-84
2023/08/16 04:03:06;;;;;;;9.27;6.28;;;;;;;;;;5060845;28;20049;-84
2023/08/16 04:05:33;;;;;;;8.40;5.43;;;;;;;;;;5058247;28;20049;-84
2023/08/16 04:07:59;;;;;;;8.80;5.22;;;;;;;;;;5055965;28;20052;-84
2023/08/16 04:10:25;;;;;;;9.75;6.15;;;;;;;;;;5057157;28;20048;-84
2023/08/16 04:12:51;;;;;;;18.23;4.88;;;;;;;;;;5059896;28;20044;-84
2023/08/16 04:15:17;;;;;;;11.32;5.07;;;;;;;;;;5052167;28;20160;-84
2023/08/16 04:17:44;;;;;;;5.50;4.00;;;;;;;;;;5059834;28;20090;-83
2023/08/16 04:20:10;;;;;;;6.53;4.00;;;;;;;;;;5063050;28;20071;-84
2023/08/16 04:22:36;;;;;;;6.57;4.03;;;;;;;;;;5039056;28;20482;-84
2023/08/16 04:25:03;;;;;;;10.05;3.90;;;;;;;;;;5066981;28;20049;-84
2023/08/16 04:27:30;;;;;;;6.05;3.50;;;;;;;;;;5057913;28;20040;-84
2023/08/16 04:29:56;;;;;;;8.52;4.30;;;;;;;;;;5058546;28;20053;-84
2023/08/16 04:32:22;;;;;;;7.25;3.80;;;;;;;;;;5042640;28;20059;-84
2023/08/16 04:34:48;;;;;;;4.68;3.20;;;;;;;;;;5061421;28;20045;-85
2023/08/16 04:37:14;;;;;;;6.72;4.20;;;;;;;;;;5050879;28;20045;-85
2023/08/16 04:39:40;;;;;;;5.82;4.00;;;;;;;;;;5045143;28;20482;-84
2023/08/16 04:42:07;;;;;;;5.90;4.22;;;;;;;;;;5061467;28;20045;-84
2023/08/16 04:44:33;;;;;;;6.20;4.82;;;;;;;;;;5059834;28;20092;-84
2023/08/16 04:47:01;;;;;;;8.40;4.50;;;;;;;;;;5060067;28;20056;-84
2023/08/16 04:49:28;;;;;;;7.60;4.30;;;;;;;;;;5059373;28;20117;-85
2023/08/16 04:51:54;;;;;;;7.47;4.28;;;;;;;;;;5043524;28;20048;-85
2023/08/16 04:54:20;;;;;;;7.25;5.00;;;;;;;;;;5063369;28;20048;-84
2023/08/16 04:56:46;;;;;;;8.10;4.25;;;;;;;;;;5063172;28;20051;-84
2023/08/16 04:59:12;;;;;;;8.13;4.03;;;;;;;;;;5065921;28;20037;-85
2023/08/16 05:01:38;;;;;;;7.05;3.78;;;;;;;;;;5069889;28;20047;-82
2023/08/16 05:04:08;;;;;;;5.57;3.30;;;;;;;;;;5060837;28;20045;-83
2023/08/16 05:06:34;;;;;;;7.00;3.75;;;;;;;;;;5063316;28;20045;-83
2023/08/16 05:09:02;;;;;;;5.75;3.47;;;;;;;;;;5067288;28;20473;-83
2023/08/16 05:11:28;;;;;;;7.63;3.85;;;;;;;;;;5048522;28;20053;-82
2023/08/16 05:13:54;;;;;;;7.63;3.45;;;;;;;;;;5064509;28;20102;-84
2023/08/16 05:16:20;;;;;;;5.60;3.67;;;;;;;;;;5062956;28;20124;-84
2023/08/16 05:18:47;;;;;;;6.55;3.30;;;;;;;;;;5061772;28;20067;-83
2023/08/16 05:21:13;;;;;;;5.32;3.15;;;;;;;;;;5062284;28;20041;-84
2023/08/16 05:23:39;;;;;;;6.75;3.50;;;;;;;;;;5064607;28;20120;-83
2023/08/16 05:26:05;;;;;;;6.13;4.10;;;;;;;;;;5064375;28;20041;-83
2023/08/16 05:28:31;;;;;;;7.38;3.65;;;;;;;;;;5063376;28;20110;-82
2023/08/16 05:31:05;;;;;;;8.38;4.28;;;;;;;;;;5064060;28;20044;-83
2023/08/16 05:33:32;;;;;;;6.53;4.38;;;;;;;;;;5047583;28;20128;-83
2023/08/16 05:35:58;;;;;;;9.07;4.28;;;;;;;;;;5064753;28;20040;-84
2023/08/16 05:38:25;;;;;;;8.55;4.55;;;;;;;;;;5047451;28;20403;-83
2023/08/16 05:40:51;;;;;;;11.25;5.70;;;;;;;;;;5064744;28;20053;-83
2023/08/16 05:43:17;;;;;;;9.38;4.95;;;;;;;;;;5063938;28;20119;-84
2023/08/16 05:45:43;;;;;;;9.10;5.35;;;;;;;;;;5063999;28;20063;-84
2023/08/16 05:48:10;;;;;;;8.50;5.45;;;;;;;;;;5047277;28;20451;-84
2023/08/16 05:50:36;;;;;;;12.50;5.00;;;;;;;;;;5047916;28;20049;-84
2023/08/16 05:53:03;;;;;;;6.78;4.25;;;;;;;;;;5064156;28;20060;-86
2023/08/16 05:55:29;;;;;;;10.55;4.30;;;;;;;;;;5034905;28;20091;-84
2023/08/16 05:57:55;;;;;;;7.05;3.65;;;;;;;;;;5058136;28;20045;-84
2023/08/16 06:00:21;;;;;;;6.65;3.92;;;;;;;;;;5049134;28;20051;-84
2023/08/16 06:02:48;;;;;;;10.27;4.28;;;;;;;;;;5061125;28;20049;-83
2023/08/16 06:05:14;;;;;;;7.03;3.85;;;;;;;;;;5062180;28;20123;-83
2023/08/16 06:07:40;;;;;;;8.80;4.00;;;;;;;;;;5062027;28;20095;-84
2023/08/16 06:10:07;;;;;;;7.65;4.18;;;;;;;;;;5061533;28;20183;-83
2023/08/16 06:12:33;;;;;;;6.97;3.83;;;;;;;;;;5062468;28;20045;-83
2023/08/16 06:15:02;;;;;;;7.63;3.80;;;;;;;;;;5064684;28;20041;-83
2023/08/16 06:17:28;;;;;;;7.70;3.85;;;;;;;;;;5064160;28;20052;-83
2023/08/16 06:19:54;;;;;;;7.38;3.95;;;;;;;;;;5064656;28;20056;-84
2023/08/16 06:22:20;;;;;;;7.22;3.78;;;;;;;;;;5063804;28;20079;-83
2023/08/16 06:24:47;;;;;;;6.82;3.75;;;;;;;;;;5060906;28;20045;-83
2023/08/16 06:27:13;;;;;;;8.15;4.10;;;;;;;;;;5062241;28;20037;-84
2023/08/16 06:29:39;;;;;;;10.35;5.40;;;;;;;;;;5045999;28;20045;-83
2023/08/16 06:32:08;;;;;;;10.25;7.60;;;;;;;;;;5063815;28;20049;-82
2023/08/16 06:34:34;;;;;;;7.70;4.82;;;;;;;;;;5063686;28;20049;-84
2023/08/16 06:37:00;;;;;;;9.02;4.82;;;;;;;;;;5061648;28;20049;-84
2023/08/16 06:39:26;;;;;;;8.82;4.60;;;;;;;;;;5064402;28;20041;-83
2023/08/16 06:41:54;;;;;;;10.05;5.68;;;;;;;;;;5045952;28;20056;-83
2023/08/16 06:44:20;;;;;;;10.55;6.28;;;;;;;;;;5045493;28;20048;-84
2023/08/16 06:46:46;;;;;;;9.60;5.78;;;;;;;;;;5062444;28;20033;-83
2023/08/16 06:49:12;;;;;;;8.60;6.30;;;;;;;;;;5065234;28;20069;-83
2023/08/16 06:51:38;;;;;;;8.35;5.22;;;;;;;;;;5046612;28;20063;-84
2023/08/16 06:54:04;;;;;;;13.98;6.10;;;;;;;;;;5062810;28;20065;-83
2023/08/16 06:56:30;;;;;;;10.48;6.10;;;;;;;;;;5062214;28;20041;-84
2023/08/16 06:58:57;;;;;;;11.57;6.10;;;;;;;;;;5062085;28;20051;-83
2023/08/16 07:01:23;;;;;;;9.52;5.95;;;;;;;;;;5062077;28;20371;-84
2023/08/16 07:03:49;;;;;;;11.90;6.28;;;;;;;;;;5062548;28;20040;-83
2023/08/16 07:06:15;;;;;;;9.85;5.55;;;;;;;;;;5059292;28;20061;-84
2023/08/16 07:08:41;;;;;;;11.13;5.65;;;;;;;;;;5061950;28;20041;-84
2023/08/16 07:11:07;;;;;;;10.10;5.90;;;;;;;;;;5060041;28;20479;-84
2023/08/16 07:13:33;;;;;;;9.48;5.18;;;;;;;;;;5063070;28;20044;-83
2023/08/16 07:15:59;;;;;;;9.25;4.68;;;;;;;;;;5063255;28;20052;-83
2023/08/16 07:18:26;;;;;;;8.88;4.97;;;;;;;;;;5062601;28;20123;-83
2023/08/16 07:20:52;;;;;;;8.52;4.18;;;;;;;;;;5061407;28;20056;-83
2023/08/16 07:23:18;;;;;;;9.30;4.60;;;;;;;;;;5058650;28;20044;-83
2023/08/16 07:25:46;;;;;;;7.85;3.78;;;;;;;;;;5057838;28;20430;-84
2023/08/16 07:28:13;;;;;;;8.05;4.10;;;;;;;;;;5061701;28;20048;-82
2023/08/16 07:30:39;;;;;;;8.13;4.10;;;;;;;;;;5062296;28;20045;-84
2023/08/16 07:33:05;;;;;;;7.65;3.88;;;;;;;;;;5060812;28;20044;-84
2023/08/16 07:35:31;;;;;;;9.65;3.83;;;;;;;;;;5044869;28;20051;-83
2023/08/16 07:37:57;;;;;;;10.88;5.10;;;;;;;;;;5062631;28;20549;-82
2023/08/16 07:40:23;;;;;;;9.50;4.60;;;;;;;;;;5054192;28;20041;-83
2023/08/16 07:42:49;;;;;;;9.68;4.20;;;;;;;;;;5059847;28;20040;-84
2023/08/16 07:45:15;;;;;;;8.15;4.20;;;;;;;;;;5060215;28;20052;-85
2023/08/16 07:47:41;;;;;;;9.20;4.50;;;;;;;;;;5061887;28;20055;-83
2023/08/16 07:50:07;;;;;;;9.60;4.47;;;;;;;;;;5060857;28;20033;-84
2023/08/16 07:52:33;;;;;;;8.00;4.10;;;;;;;;;;5043861;28;20045;-83
2023/08/16 07:54:59;;;;;;;8.13;4.35;;;;;;;;;;5043775;28;20073;-84
2023/08/16 07:57:26;;;;;;;7.90;3.75;;;;;;;;;;5060860;28;20044;-84
2023/08/16 07:59:52;;;;;;;8.68;3.97;;;;;;;;;;5061648;28;20044;-84
2023/08/16 08:02:18;;;;;;;8.77;3.53;;;;;;;;;;5060642;28;20079;-83
2023/08/16 08:04:44;;;;;;;9.27;4.28;;;;;;;;;;5061179;28;20448;-83
2023/08/16 08:07:11;;;;;;;10.90;4.60;;;;;;;;;;5061039;28;20045;-85
2023/08/16 08:09:37;;;;;;;8.75;4.25;;;;;;;;;;5062509;28;20052;-83
2023/08/16 08:12:03;;;;;;;10.35;3.67;;;;;;;;;;5062869;28;20041;-83
2023/08/16 08:14:29;;;;;;;9.15;3.58;;;;;;;;;;5061648;28;20099;-84
2023/08/16 08:16:56;;;;;;;7.80;3.45;;;;;;;;;;5061807;28;20095;-84
2023/08/16 08:19:22;;;;;;;9.85;3.50;;;;;;;;;;5062037;28;20422;-84
2023/08/16 08:21:48;;;;;;;10.40;4.00;;;;;;;;;;5058284;28;20045;-84
2023/08/16 08:24:15;;;;;;;7.45;4.15;;;;;;;;;;5061345;28;20565;-84
2023/08/16 08:26:43;;;;;;;10.88;3.40;;;;;;;;;;5061647;28;20045;-83
2023/08/16 08:29:09;;;;;;;8.90;3.80;;;;;;;;;;5049325;28;20041;-84
2023/08/16 08:31:35;;;;;;;6.75;3.60;;;;;;;;;;5040083;28;20055;-83
2023/08/16 08:34:01;;;;;;;9.52;3.75;;;;;;;;;;5066665;28;20037;-84
2023/08/16 08:36:27;;;;;;;9.70;3.03;;;;;;;;;;5060513;28;20045;-83
2023/08/16 08:38:53;;;;;;;8.93;2.58;;;;;;;;;;5064345;28;20053;-83
2023/08/16 08:41:23;;;;;;;8.27;3.00;;;;;;;;;;5066220;28;20487;-83
2023/08/16 08:43:49;;;;;;;9.63;3.10;;;;;;;;;;5063906;28;20045;-83
2023/08/16 08:46:16;;;;;;;8.25;3.13;;;;;;;;;;5061285;28;20048;-83
2023/08/16 08:48:44;;;;;;;7.88;2.72;;;;;;;;;;5045699;28;20129;-83
2023/08/16 08:51:10;;;;;;;6.40;2.53;;;;;;;;;;5053650;28;20368;-83
2023/08/16 08:53:39;;;;;;;6.57;2.33;;;;;;;;;;5036600;28;20041;-81
2023/08/16 08:56:15;;;;;;;6.05;2.38;;;;;;;;;;5045466;28;20040;-83
2023/08/16 08:58:43;;;;;;;5.18;1.80;;;;;;;;;;5057018;28;20041;-82
2023/08/16 09:01:10;;;;;;;5.68;1.92;;;;;;;;;;5058208;28;20045;-83
2023/08/16 09:03:36;;;;;;;7.55;2.42;;;;;;;;;;5061421;28;20041;-82
2023/08/16 09:06:03;;;;;;;7.65;1.77;;;;;;;;;;5054907;28;20049;-83
2023/08/16 09:08:30;;;;;;;18.35;3.20;;;;;;;;;;5038584;28;20057;-83
2023/08/16 09:11:00;;;;;;;16.92;3.53;;;;;;;;;;5055487;28;20044;-83
2023/08/16 09:13:27;;;;;;;5.60;1.70;;;;;;;;;;5053146;28;20078;-83
2023/08/16 09:15:53;;;;;;;6.50;1.58;;;;;;;;;;5053822;28;20045;-83
2023/08/16 09:18:21;;;;;;;39.67;6.22;;;;;;;;;;5053925;28;20049;-83
2023/08/16 09:20:49;;;;;;;7.45;2.20;;;;;;;;;;5041511;28;20055;-83
2023/08/16 09:23:18;;;;;;;6.10;2.30;;;;;;;;;;5066103;28;20056;-83
2023/08/16 09:25:44;;;;;;;6.30;1.73;;;;;;;;;;5048302;28;20049;-83
2023/08/16 09:28:14;;;;;;;5.80;1.80;;;;;;;;;;5063940;28;20052;-82
2023/08/16 09:30:41;;;;;;;6.10;2.03;;;;;;;;;;5064507;28;20063;-82
2023/08/16 09:33:07;;;;;;;5.38;2.10;;;;;;;;;;5060793;28;20100;-83
2023/08/16 09:35:34;;;;;;;11.98;2.63;;;;;;;;;;5059018;28;20438;-83
2023/08/16 09:38:01;;;;;;;7.47;1.98;;;;;;;;;;5052570;28;20084;-83
2023/08/16 09:40:27;;;;;;;5.10;1.70;;;;;;;;;;5060804;28;20049;-85
2023/08/16 09:43:00;;;;;;;10.82;2.67;;;;;;;;;;5063382;28;20624;-83
2023/08/16 09:45:36;;;;;;;11.27;2.88;;;;;;;;;;5046996;28;20052;-82
2023/08/16 09:48:04;;;;;;;11.82;2.20;;;;;;;;;;5062489;28;20105;-83
2023/08/16 09:50:32;;;;;;;6.70;1.45;;;;;;;;;;5063692;28;20481;-83
2023/08/16 09:53:05;;;;;;;39.90;5.22;;;;;;;;;;5063856;28;20377;-84
2023/08/16 09:55:32;;;;;;;7.88;1.98;;;;;;;;;;5043189;28;20064;-82
2023/08/16 09:57:59;;;;;;;5.32;1.52;;;;;;;;;;5054742;28;20045;-81
2023/08/16 10:00:27;;;;;;;6.00;1.60;;;;;;;;;;5065046;28;20574;-82
2023/08/16 10:02:53;;;;;;;4.43;1.30;;;;;;;;;;5065076;28;20083;-81
2023/08/16 10:05:19;;;;;;;3.58;1.00;;;;;;;;;;5046141;28;20076;-83
2023/08/16 10:07:49;;;;;;;5.00;1.20;;;;;;;;;;5065911;28;20041;-82
2023/08/16 10:10:15;;;;;;;4.75;1.50;;;;;;;;;;5054778;28;20046;-84
2023/08/16 10:12:42;;;;;;;7.15;1.40;;;;;;;;;;5046780;28;20053;-83
2023/08/16 10:15:09;;;;;;;4.47;1.30;;;;;;;;;;5047160;28;20392;-83
2023/08/16 10:17:40;;;;;;;10.70;2.00;;;;;;;;;;5065712;28;20037;-83
2023/08/16 10:20:09;;;;;;;7.53;1.73;;;;;;;;;;5064419;28;20045;-83
2023/08/16 10:22:41;;;;;;;11.63;2.42;;;;;;;;;;5048201;28;20041;-83
2023/08/16 10:25:12;;;;;;;17.23;2.63;;;;;;;;;;5065639;28;20106;-81
2023/08/16 10:27:38;;;;;;;8.25;1.65;;;;;;;;;;5041315;28;20076;-82
2023/08/16 10:30:07;;;;;;;5.03;1.30;;;;;;;;;;5030813;28;20041;-82
2023/08/16 10:32:35;;;;;;;4.75;1.33;;;;;;;;;;5049103;28;20045;-83
2023/08/16 10:35:02;;;;;;;4.82;1.40;;;;;;;;;;5062938;28;20041;-83
2023/08/16 10:37:28;;;;;;;4.70;1.25;;;;;;;;;;5064933;28;20037;-82
2023/08/16 10:39:54;;;;;;;5.85;1.45;;;;;;;;;;5064394;28;20045;-82
2023/08/16 10:42:26;;;;;;;5.18;1.10;;;;;;;;;;5050368;28;20055;-82
2023/08/16 10:44:52;;;;;;;4.32;1.05;;;;;;;;;;5054278;28;20045;-84
2023/08/16 10:47:37;;;;;;;5.00;1.30;;;;;;;;;;5065445;28;20048;-83
2023/08/16 10:50:03;;;;;;;3.63;0.98;;;;;;;;;;5061104;28;20109;-82
2023/08/16 10:52:30;;;;;;;3.83;1.30;;;;;;;;;;5046629;28;20033;-81
2023/08/16 10:54:56;;;;;;;3.58;1.00;;;;;;;;;;5046713;28;20147;-83
2023/08/16 10:57:26;;;;;;;6.47;1.25;;;;;;;;;;5068797;28;20045;-82
2023/08/16 11:00:21;;;;;;;3.88;1.35;;;;;;;;;;5057260;28;20407;-83
2023/08/16 11:02:49;;;;;;;4.68;1.02;;;;;;;;;;5035237;28;20063;-82
2023/08/16 11:05:18;;;;;;;3.75;0.93;;;;;;;;;;5054970;28;20084;-82
2023/08/16 11:07:44;;;;;;;4.30;0.90;;;;;;;;;;5059392;28;20093;-81
2023/08/16 11:10:10;;;;;;;3.28;1.10;;;;;;;;;;5061348;28;20368;-83
2023/08/16 11:12:36;;;;;;;3.72;1.23;;;;;;;;;;5045741;28;20041;-82
2023/08/16 11:15:03;;;;;;;4.60;1.08;;;;;;;;;;5066194;28;20102;-83
2023/08/16 11:17:30;;;;;;;4.10;1.02;;;;;;;;;;5064406;28;20047;-83
2023/08/16 11:19:56;;;;;;;3.38;1.00;;;;;;;;;;5047646;28;20552;-82
2023/08/16 11:22:24;;;;;;;5.38;1.00;;;;;;;;;;5046267;28;20042;-83
2023/08/16 11:24:50;;;;;;;4.85;1.38;;;;;;;;;;5061564;28;20076;-83
2023/08/16 11:27:21;;;;;;;5.80;1.23;;;;;;;;;;5066276;28;20041;-81
2023/08/16 11:29:51;;;;;;;3.72;1.00;;;;;;;;;;5043743;28;20410;-84
2023/08/16 11:32:30;;;;;;;5.35;1.38;;;;;;;;;;5046490;28;20049;-82
2023/08/16 11:34:56;;;;;;;4.05;1.02;;;;;;;;;;5041929;28;20044;-83
2023/08/16 11:37:22;;;;;;;4.45;1.10;;;;;;;;;;5062555;28;20052;-82
2023/08/16 11:39:58;;;;;;;5.13;1.50;;;;;;;;;;5048643;28;20049;-83
2023/08/16 11:42:25;;;;;;;3.92;1.45;;;;;;;;;;5063584;28;20060;-84
2023/08/16 11:44:52;;;;;;;4.95;1.60;;;;;;;;;;5042297;28;20503;-82
2023/08/16 11:47:18;;;;;;;4.30;1.27;;;;;;;;;;5060093;28;20045;-83
2023/08/16 11:49:44;;;;;;;4.00;1.30;;;;;;;;;;5045080;28;20044;-81
2023/08/16 11:52:10;;;;;;;4.78;1.40;;;;;;;;;;5043091;28;20112;-82
2023/08/16 11:54:36;;;;;;;5.13;1.20;;;;;;;;;;5064176;28;20041;-81
2023/08/16 11:57:02;;;;;;;5.13;1.50;;;;;;;;;;5061223;28;20048;-83
2023/08/16 11:59:32;;;;;;;4.57;1.10;;;;;;;;;;5046793;28;20072;-82
2023/08/16 12:02:06;;;;;;;6.03;1.40;;;;;;;;;;5059404;28;20060;-83
2023/08/16 12:04:32;;;;;;;5.47;1.30;;;;;;;;;;5053524;28;20083;-82
2023/08/16 12:06:58;;;;;;;3.72;1.33;;;;;;;;;;5067445;28;20049;-81
2023/08/16 12:09:24;;;;;;;5.28;1.27;;;;;;;;;;5070047;28;20052;-82
2023/08/16 12:11:51;;;;;;;3.75;1.10;;;;;;;;;;5054873;28;20103;-81
2023/08/16 12:14:18;;;;;;;6.15;1.23;;;;;;;;;;5047094;28;20069;-81
2023/08/16 12:16:44;;;;;;;4.90;1.13;;;;;;;;;;5064367;28;20151;-82
2023/08/16 12:19:10;;;;;;;5.70;1.15;;;;;;;;;;5054530;28;20049;-82
2023/08/16 12:21:36;;;;;;;3.72;1.20;;;;;;;;;;5050602;28;20034;-81
2023/08/16 12:24:02;;;;;;;5.03;1.20;;;;;;;;;;5051844;28;20077;-81
2023/08/16 12:26:28;;;;;;;4.93;1.10;;;;;;;;;;5061543;28;20037;-81
2023/08/16 12:28:56;;;;;;;3.90;1.10;;;;;;;;;;5051667;28;20041;-82
2023/08/16 12:31:22;;;;;;;4.72;1.10;;;;;;;;;;5070159;28;20048;-81
2023/08/16 12:33:48;;;;;;;4.03;1.00;;;;;;;;;;5071098;28;20041;-81
2023/08/16 12:36:14;;;;;;;4.05;1.02;;;;;;;;;;5053217;28;20045;-82
2023/08/16 12:38:41;;;;;;;7.45;1.77;;;;;;;;;;5051674;28;20061;-81
2023/08/16 12:41:07;;;;;;;5.43;1.10;;;;;;;;;;5052048;28;20118;-83
2023/08/16 12:43:33;;;;;;;3.92;1.00;;;;;;;;;;5064740;28;20088;-83
2023/08/16 12:46:05;;;;;;;4.70;0.95;;;;;;;;;;5032854;28;20125;-83
2023/08/16 12:48:31;;;;;;;3.88;1.15;;;;;;;;;;5066112;28;20068;-82
2023/08/16 12:50:57;;;;;;;6.95;1.67;;;;;;;;;;5066958;28;20044;-83
2023/08/16 12:53:23;;;;;;;4.85;1.38;;;;;;;;;;5045966;28;20037;-84
2023/08/16 12:55:49;;;;;;;16.25;1.85;;;;;;;;;;5062146;28;20037;-83
2023/08/16 12:58:16;;;;;;;5.63;1.35;;;;;;;;;;5050598;28;20461;-83
2023/08/16 13:00:42;;;;;;;6.03;1.30;;;;;;;;;;5069815;28;20048;-82
2023/08/16 13:03:08;;;;;;;4.22;1.15;;;;;;;;;;5068511;28;20045;-82
2023/08/16 13:05:34;;;;;;;3.70;1.00;;;;;;;;;;5068558;28;20436;-82
2023/08/16 13:08:01;;;;;;;3.47;1.15;;;;;;;;;;5051190;28;20045;-82
2023/08/16 13:10:28;;;;;;;4.05;1.00;;;;;;;;;;5045586;28;20072;-82
2023/08/16 13:12:54;;;;;;;3.28;0.95;;;;;;;;;;5067125;28;20080;-83
2023/08/16 13:15:21;;;;;;;3.90;1.10;;;;;;;;;;5067214;28;20151;-82
2023/08/16 13:17:47;;;;;;;4.07;1.20;;;;;;;;;;5067546;28;20060;-81
2023/08/16 13:20:14;;;;;;;2.58;0.90;;;;;;;;;;5067289;28;20037;-81
2023/08/16 13:22:40;;;;;;;5.05;0.98;;;;;;;;;;5066129;28;20127;-81
2023/08/16 13:25:07;;;;;;;4.28;0.93;;;;;;;;;;5065470;28;20097;-82
2023/08/16 13:27:33;;;;;;;3.10;0.80;;;;;;;;;;5061100;28;20055;-82
2023/08/16 13:29:59;;;;;;;3.60;1.10;;;;;;;;;;5044581;28;20050;-82
2023/08/16 13:32:25;;;;;;;3.20;0.80;;;;;;;;;;5064523;28;20037;-82
2023/08/16 13:34:52;;;;;;;3.83;0.90;;;;;;;;;;5064277;28;20049;-83
2023/08/16 13:37:18;;;;;;;5.75;1.30;;;;;;;;;;5067631;28;20049;-81
2023/08/16 13:39:44;;;;;;;4.50;1.10;;;;;;;;;;5066687;28;20045;-82
2023/08/16 13:42:10;;;;;;;5.38;1.10;;;;;;;;;;5066382;28;20067;-82
2023/08/16 13:44:36;;;;;;;3.95;0.90;;;;;;;;;;5068276;28;20066;-81
2023/08/16 13:47:04;;;;;;;4.55;1.10;;;;;;;;;;5068556;28;20072;-82
2023/08/16 13:49:30;;;;;;;4.20;1.05;;;;;;;;;;5050397;28;20068;-82
2023/08/16 13:51:56;;;;;;;3.38;1.00;;;;;;;;;;5068716;28;20079;-83
2023/08/16 13:54:22;;;;;;;2.55;0.80;;;;;;;;;;5067574;28;20052;-82
2023/08/16 13:56:48;;;;;;;5.35;1.33;;;;;;;;;;5068641;28;20049;-82
2023/08/16 13:59:14;;;;;;;3.95;0.93;;;;;;;;;;5064979;28;20243;-82
2023/08/16 14:01:41;;;;;;;3.65;0.90;;;;;;;;;;5065799;28;20116;-83
2023/08/16 14:04:07;;;;;;;3.65;1.00;;;;;;;;;;5067987;28;20037;-81
2023/08/16 14:06:33;;;;;;;3.22;0.85;;;;;;;;;;5069036;28;20041;-81
2023/08/16 14:08:59;;;;;;;2.17;0.70;;;;;;;;;;5060717;28;20037;-84
2023/08/16 14:11:25;;;;;;;6.97;1.00;;;;;;;;;;5061463;28;22028;-82
2023/08/16 14:13:52;;;;;;;2.95;0.85;;;;;;;;;;5061965;28;20045;-83
2023/08/16 14:16:18;;;;;;;3.88;1.02;;;;;;;;;;5049635;28;20071;-83
2023/08/16 14:18:44;;;;;;;4.72;1.00;;;;;;;;;;5051907;28;20045;-83
2023/08/16 14:21:10;;;;;;;4.85;0.85;;;;;;;;;;5063982;28;20040;-83
2023/08/16 14:23:36;;;;;;;4.15;0.98;;;;;;;;;;5049382;28;20041;-82
2023/08/16 14:26:02;;;;;;;3.63;1.00;;;;;;;;;;5067407;28;20051;-81
2023/08/16 14:28:28;;;;;;;3.53;0.88;;;;;;;;;;5062384;28;20560;-81
2023/08/16 14:30:54;;;;;;;3.83;1.00;;;;;;;;;;5065659;28;20111;-81
2023/08/16 14:33:23;;;;;;;4.93;1.10;;;;;;;;;;5067187;28;20045;-80
2023/08/16 14:35:49;;;;;;;5.03;1.13;;;;;;;;;;5066290;28;20414;-80
2023/08/16 14:38:15;;;;;;;4.15;0.90;;;;;;;;;;5070090;28;20067;-82